createdAt,value
2023-03-15T00:00:38.480Z,98717.47
2023-03-15T00:03:43.303Z,98720.06
2023-03-15T00:06:49.074Z,98709.50
2023-03-15T00:09:53.295Z,98712.72
2023-03-15T00:12:57.768Z,98710.16
2023-03-15T00:16:03.913Z,98704.38
2023-03-15T00:19:08.062Z,98704.75
2023-03-15T00:22:13.507Z,98703.75
2023-03-15T00:25:17.589Z,98700.03
2023-03-15T00:28:22.084Z,98695.41
2023-03-15T00:31:28.487Z,98696.41
2023-03-15T00:34:34.589Z,98697.53
2023-03-15T00:37:40.294Z,98700.88
2023-03-15T00:40:44.415Z,98699.69
2023-03-15T00:43:48.963Z,98683.66
2023-03-15T00:46:53.026Z,98680.16
2023-03-15T00:49:57.134Z,98682.47
2023-03-15T00:53:02.764Z,98681.06
2023-03-15T00:56:08.129Z,98684.75
2023-03-15T00:59:12.164Z,98677.97
2023-03-15T01:02:16.636Z,98676.13
2023-03-15T01:05:23.638Z,98671.06
2023-03-15T01:08:29.478Z,98671.16
2023-03-15T01:11:33.758Z,98657.25
2023-03-15T01:14:39.419Z,98655.53
2023-03-15T01:17:44.124Z,98655.78
2023-03-15T01:20:48.308Z,98657.03
2023-03-15T01:23:55.118Z,98653.81
2023-03-15T01:26:59.339Z,98664.97
2023-03-15T01:30:03.553Z,98664.81
2023-03-15T01:33:07.727Z,98653.25
2023-03-15T01:36:13.708Z,98646.63
2023-03-15T01:39:19.618Z,98642.84
2023-03-15T01:42:24.007Z,98652.25
2023-03-15T01:46:01.721Z,98644.66
2023-03-15T01:49:12.871Z,98636.69
2023-03-15T01:52:23.865Z,98643.63
2023-03-15T01:55:36.705Z,98640.50
2023-03-15T01:58:49.454Z,98647.63
2023-03-15T02:01:54.939Z,98652.63
2023-03-15T02:05:04.656Z,98641.84
2023-03-15T02:08:12.103Z,98634.88
2023-03-15T02:11:21.086Z,98640.63
2023-03-15T02:14:26.475Z,98627.31
2023-03-15T02:17:38.888Z,98627.63
2023-03-15T02:20:53.108Z,98632.00
2023-03-15T02:24:12.515Z,98620.91
2023-03-15T02:27:28.580Z,98626.38
2023-03-15T02:30:32.669Z,98621.78
2023-03-15T02:33:42.719Z,98617.19
2023-03-15T02:36:46.755Z,98624.59
2023-03-15T02:39:50.749Z,98620.50
2023-03-15T02:43:01.135Z,98620.41
2023-03-15T02:46:06.082Z,98619.69
2023-03-15T02:49:11.884Z,98622.44
2023-03-15T02:52:16.200Z,98616.84
2023-03-15T02:55:22.191Z,98615.59
2023-03-15T02:58:27.695Z,98607.25
2023-03-15T03:01:32.010Z,98600.44
2023-03-15T03:04:36.163Z,98600.97
2023-03-15T03:07:40.721Z,98603.84
2023-03-15T03:10:45.284Z,98599.75
2023-03-15T03:13:51.622Z,98602.72
2023-03-15T03:16:56.756Z,98603.09
2023-03-15T03:20:01.405Z,98596.72
2023-03-15T03:23:11.650Z,98600.41
2023-03-15T03:26:17.707Z,98594.31
2023-03-15T03:29:25.290Z,98586.53
2023-03-15T03:32:31.256Z,98592.69
2023-03-15T03:35:35.353Z,98595.56
2023-03-15T03:38:39.704Z,98591.31
2023-03-15T03:41:44.025Z,98587.66
2023-03-15T03:44:51.900Z,98581.59
2023-03-15T03:47:56.905Z,98585.09
2023-03-15T03:51:01.195Z,98580.44
2023-03-15T03:54:05.991Z,98575.22
2023-03-15T03:57:10.459Z,98572.94
2023-03-15T04:00:18.904Z,98592.31
2023-03-15T04:03:27.620Z,98594.22
2023-03-15T04:06:39.819Z,98595.19
2023-03-15T04:09:43.812Z,98594.81
2023-03-15T04:12:47.854Z,98589.25
2023-03-15T04:15:58.028Z,98577.56
2023-03-15T04:19:10.096Z,98586.56
2023-03-15T04:22:15.784Z,98591.41
2023-03-15T04:25:40.113Z,98573.69
2023-03-15T04:29:09.186Z,98555.22
2023-03-15T04:32:38.073Z,98561.53
2023-03-15T04:36:03.164Z,98560.84
2023-03-15T04:39:10.251Z,98562.81
2023-03-15T04:42:29.362Z,98582.69
2023-03-15T04:45:36.153Z,98583.78
2023-03-15T04:49:00.086Z,98581.53
2023-03-15T04:52:04.178Z,98589.50
2023-03-15T04:55:31.090Z,98571.59
2023-03-15T04:58:44.044Z,98576.22
2023-03-15T05:02:06.493Z,98582.44
2023-03-15T05:05:27.400Z,98592.63
2023-03-15T05:08:39.968Z,98579.13
2023-03-15T05:12:08.369Z,98581.88
2023-03-15T05:15:32.626Z,98581.06
2023-03-15T05:18:59.945Z,98591.97
2023-03-15T05:22:26.037Z,98593.28
2023-03-15T05:25:54.539Z,98594.25
2023-03-15T05:29:24.402Z,98588.06
2023-03-15T05:32:39.965Z,98595.16
2023-03-15T05:36:04.002Z,98583.28
2023-03-15T05:39:17.101Z,98586.78
2023-03-15T05:42:33.565Z,98581.66
2023-03-15T05:46:00.714Z,98582.97
2023-03-15T05:49:20.327Z,98585.09
2023-03-15T05:52:41.971Z,98566.50
2023-03-15T05:55:54.762Z,98572.28
2023-03-15T05:59:28.080Z,98577.78
2023-03-15T06:02:54.398Z,98569.75
2023-03-15T06:06:23.875Z,98579.94
2023-03-15T06:09:28.455Z,98576.66
2023-03-15T06:12:34.862Z,98588.44
2023-03-15T06:15:39.827Z,98586.41
2023-03-15T06:18:45.415Z,98582.97
2023-03-15T06:21:49.832Z,98574.22
2023-03-15T06:25:07.216Z,98586.34
2023-03-15T06:28:12.973Z,98584.94
2023-03-15T06:31:22.326Z,98578.59
2023-03-15T06:34:33.806Z,98574.50
2023-03-15T06:37:38.145Z,98577.38
2023-03-15T06:40:45.663Z,98581.19
2023-03-15T06:43:51.396Z,98577.19
2023-03-15T06:46:55.612Z,98575.63
2023-03-15T06:49:59.765Z,98574.03
2023-03-15T06:53:04.271Z,98583.28
2023-03-15T06:56:08.987Z,98582.72
2023-03-15T06:59:14.777Z,98587.59
2023-03-15T07:02:20.577Z,98577.88
2023-03-15T07:05:25.009Z,98573.97
2023-03-15T07:08:29.269Z,98578.91
2023-03-15T07:11:33.570Z,98565.75
2023-03-15T07:14:39.378Z,98564.50
2023-03-15T07:17:43.718Z,98570.16
2023-03-15T07:20:47.845Z,98562.06
2023-03-15T07:23:52.059Z,98568.19
2023-03-15T07:26:57.044Z,98570.28
2023-03-15T07:30:02.672Z,98570.50
2023-03-15T07:33:06.940Z,98564.19
2023-03-15T07:36:11.344Z,98558.13
2023-03-15T07:39:16.509Z,98553.00
2023-03-15T07:42:20.740Z,98558.31
2023-03-15T07:45:30.390Z,98547.38
2023-03-15T07:48:34.618Z,98553.94
2023-03-15T07:51:38.786Z,98558.06
2023-03-15T07:54:42.929Z,98552.22
2023-03-15T07:57:49.561Z,98543.34
2023-03-15T08:00:58.138Z,98540.03
2023-03-15T08:04:02.346Z,98549.72
2023-03-15T08:07:06.714Z,98538.94
2023-03-15T08:10:11.925Z,98538.75
2023-03-15T08:13:16.236Z,98529.47
2023-03-15T08:16:22.062Z,98511.03
2023-03-15T08:19:26.495Z,98502.06
2023-03-15T08:22:31.003Z,98485.16
2023-03-15T08:25:35.460Z,98494.69
2023-03-15T08:28:39.676Z,98493.59
2023-03-15T08:31:45.318Z,98484.72
2023-03-15T08:34:49.800Z,98480.53
2023-03-15T08:37:53.910Z,98467.47
2023-03-15T08:40:58.739Z,98472.75
2023-03-15T08:44:03.257Z,98475.66
2023-03-15T08:47:09.116Z,98475.19
2023-03-15T08:50:15.693Z,98473.03
2023-03-15T08:53:19.980Z,98473.28
2023-03-15T08:56:24.205Z,98487.25
2023-03-15T08:59:32.107Z,98481.25
2023-03-15T09:02:39.117Z,98486.13
2023-03-15T09:05:43.448Z,98476.25
2023-03-15T09:08:47.707Z,98476.16
2023-03-15T09:11:51.880Z,98466.53
2023-03-15T09:14:56.078Z,98450.88
2023-03-15T09:18:01.642Z,98445.66
2023-03-15T09:21:07.745Z,98453.81
2023-03-15T09:24:11.836Z,98441.94
2023-03-15T09:27:16.072Z,98440.50
2023-03-15T09:30:21.024Z,98437.72
2023-03-15T09:33:26.819Z,98433.09
2023-03-15T09:36:31.788Z,98442.47
2023-03-15T09:39:36.869Z,98449.53
2023-03-15T09:42:58.014Z,98444.06
2023-03-15T09:46:12.740Z,98442.91
2023-03-15T09:49:27.570Z,98435.34
2023-03-15T09:52:44.166Z,98425.66
2023-03-15T09:55:52.699Z,98420.03
2023-03-15T09:58:59.914Z,98433.16
2023-03-15T10:02:18.255Z,98418.69
2023-03-15T10:05:27.958Z,98416.13
2023-03-15T10:08:32.053Z,98410.38
2023-03-15T10:11:41.775Z,98396.75
2023-03-15T10:15:03.223Z,98393.66
2023-03-15T10:18:27.252Z,98390.06
2023-03-15T10:21:42.131Z,98395.56
2023-03-15T10:24:50.726Z,98409.69
2023-03-15T10:27:58.428Z,98405.81
2023-03-15T10:31:10.320Z,98398.59
2023-03-15T10:34:15.900Z,98397.25
2023-03-15T10:37:24.068Z,98382.38
2023-03-15T10:40:42.245Z,98386.53
2023-03-15T10:43:59.831Z,98375.38
2023-03-15T10:47:21.939Z,98373.44
2023-03-15T10:50:29.839Z,98370.91
2023-03-15T10:53:36.235Z,98361.59
2023-03-15T10:56:47.361Z,98358.19
2023-03-15T11:00:00.190Z,98360.69
2023-03-15T11:03:06.409Z,98352.81
2023-03-15T11:06:23.057Z,98350.97
2023-03-15T11:09:29.239Z,98359.47
2023-03-15T11:12:35.329Z,98351.59
2023-03-15T11:15:41.496Z,98362.81
2023-03-15T11:18:49.159Z,98364.84
2023-03-15T11:21:53.677Z,98356.31
2023-03-15T11:24:59.552Z,98354.84
2023-03-15T11:28:04.927Z,98354.03
2023-03-15T11:31:09.359Z,98342.75
2023-03-15T11:34:19.371Z,98350.16
2023-03-15T11:37:27.595Z,98344.91
2023-03-15T11:40:36.585Z,98340.41
2023-03-15T11:43:50.144Z,98341.81
2023-03-15T11:47:00.821Z,98340.00
2023-03-15T11:50:05.690Z,98335.34
2023-03-15T11:53:15.217Z,98329.25
2023-03-15T11:56:27.122Z,98329.34
2023-03-15T11:59:32.973Z,98312.38
2023-03-15T12:02:49.380Z,98310.25
2023-03-15T12:05:54.462Z,98313.50
2023-03-15T12:08:58.672Z,98318.38
2023-03-15T12:12:06.208Z,98311.53
2023-03-15T12:15:46.544Z,98302.44
2023-03-15T12:18:51.690Z,98296.53
2023-03-15T12:21:58.528Z,98296.91
2023-03-15T12:25:12.332Z,98293.75
2023-03-15T12:28:25.367Z,98289.63
2023-03-15T12:31:45.952Z,98292.41
2023-03-15T12:34:51.725Z,98286.28
2023-03-15T12:37:57.424Z,98289.94
2023-03-15T12:41:01.622Z,98288.03
2023-03-15T12:44:43.750Z,98267.84
2023-03-15T12:47:48.646Z,98271.28
2023-03-15T12:50:59.737Z,98269.78
2023-03-15T12:54:06.177Z,98271.44
2023-03-15T12:57:12.676Z,98260.81
2023-03-15T13:00:22.444Z,98273.41
2023-03-15T13:03:28.944Z,98273.88
2023-03-15T13:07:02.996Z,98262.06
2023-03-15T13:10:42.716Z,98260.69
2023-03-15T13:14:14.248Z,98259.81
2023-03-15T13:17:33.895Z,98261.31
2023-03-15T13:20:44.225Z,98260.47
2023-03-15T13:23:53.878Z,98250.59
2023-03-15T13:27:05.082Z,98252.91
2023-03-15T13:30:29.840Z,98249.25
2023-03-15T13:33:35.753Z,98241.78
2023-03-15T13:36:46.043Z,98246.16
2023-03-15T13:39:59.280Z,98243.03
2023-03-15T13:43:03.613Z,98239.75
2023-03-15T13:46:08.180Z,98239.03
2023-03-15T13:49:14.979Z,98232.59
2023-03-15T13:52:19.883Z,98234.59
2023-03-15T13:55:25.657Z,98237.22
2023-03-15T13:58:30.819Z,98233.97
2023-03-15T14:01:42.804Z,98240.00
2023-03-15T14:04:53.657Z,98234.38
2023-03-15T14:08:03.041Z,98223.47
2023-03-15T14:11:11.816Z,98223.03
2023-03-15T14:14:23.719Z,98223.88
2023-03-15T14:17:29.879Z,98228.69
2023-03-15T14:20:41.781Z,98226.47
2023-03-15T14:23:48.810Z,98221.88
2023-03-15T14:26:55.551Z,98222.06
2023-03-15T14:30:01.206Z,98215.41
2023-03-15T14:33:09.100Z,98227.13
2023-03-15T14:36:27.343Z,98229.38
2023-03-15T14:39:33.683Z,98227.97
2023-03-15T14:42:37.892Z,98226.34
2023-03-15T14:45:44.275Z,98230.38
2023-03-15T14:48:48.751Z,98225.13
2023-03-15T14:51:57.769Z,98234.63
2023-03-15T14:55:03.044Z,98238.88
2023-03-15T14:58:13.761Z,98242.72
2023-03-15T15:01:22.795Z,98239.28
2023-03-15T15:04:33.823Z,98234.22
2023-03-15T15:07:39.455Z,98225.28
2023-03-15T15:10:45.949Z,98219.06
2023-03-15T15:13:50.473Z,98219.69
2023-03-15T15:16:54.683Z,98227.91
2023-03-15T15:19:58.984Z,98232.34
2023-03-15T15:23:04.872Z,98231.16
2023-03-15T15:26:16.976Z,98219.03
2023-03-15T15:29:21.747Z,98217.41
2023-03-15T15:32:26.094Z,98216.22
2023-03-15T15:35:30.250Z,98204.94
2023-03-15T15:38:39.210Z,98207.56
2023-03-15T15:41:43.447Z,98212.56
2023-03-15T15:44:47.579Z,98221.06
2023-03-15T15:47:52.320Z,98235.00
2023-03-15T15:50:56.515Z,98227.53
2023-03-15T15:54:03.139Z,98224.47
2023-03-15T15:57:08.604Z,98228.31
2023-03-15T16:00:18.455Z,98231.84
2023-03-15T16:03:22.717Z,98227.44
2023-03-15T16:06:27.669Z,98235.16
2023-03-15T16:09:36.426Z,98243.63
2023-03-15T16:12:40.469Z,98250.66
2023-03-15T16:15:44.880Z,98250.06
2023-03-15T16:18:49.149Z,98246.63
2023-03-15T16:21:54.844Z,98244.94
2023-03-15T16:25:01.876Z,98254.41
2023-03-15T16:28:08.283Z,98252.38
2023-03-15T16:31:12.821Z,98262.06
2023-03-15T16:34:18.487Z,98264.09
2023-03-15T16:37:25.627Z,98276.94
2023-03-15T16:40:34.111Z,98275.06
2023-03-15T16:43:38.354Z,98274.06
2023-03-15T16:46:42.758Z,98268.00
2023-03-15T16:49:46.877Z,98272.41
2023-03-15T16:52:55.797Z,98280.84
2023-03-15T16:56:01.441Z,98283.06
2023-03-15T16:59:06.325Z,98284.81
2023-03-15T17:02:19.746Z,98277.22
2023-03-15T17:05:25.222Z,98275.97
2023-03-15T17:08:29.692Z,98281.25
2023-03-15T17:11:36.509Z,98289.94
2023-03-15T17:14:41.469Z,98294.41
2023-03-15T17:17:45.788Z,98305.53
2023-03-15T17:20:51.121Z,98302.22
2023-03-15T17:23:56.162Z,98300.63
2023-03-15T17:27:01.786Z,98299.00
2023-03-15T17:30:16.139Z,98295.97
2023-03-15T17:33:20.291Z,98300.19
2023-03-15T17:36:26.987Z,98294.50
2023-03-15T17:39:31.349Z,98294.47
2023-03-15T17:42:36.970Z,98295.53
2023-03-15T17:45:41.309Z,98299.41
2023-03-15T17:48:45.508Z,98296.19
2023-03-15T17:51:49.675Z,98296.41
2023-03-15T17:54:53.997Z,98310.31
2023-03-15T17:57:59.607Z,98311.28
2023-03-15T18:01:04.869Z,98317.16
2023-03-15T18:04:12.255Z,98312.25
2023-03-15T18:07:16.478Z,98319.97
2023-03-15T18:10:24.327Z,98318.53
2023-03-15T18:13:30.381Z,98318.91
2023-03-15T18:16:34.565Z,98331.16
2023-03-15T18:19:38.726Z,98326.34
2023-03-15T18:22:43.078Z,98335.03
2023-03-15T18:25:47.261Z,98338.97
2023-03-15T18:28:53.118Z,98336.63
2023-03-15T18:31:57.369Z,98333.50
2023-03-15T18:35:01.786Z,98333.13
2023-03-15T18:38:06.880Z,98343.03
2023-03-15T18:41:20.500Z,98337.59
2023-03-15T18:44:26.458Z,98336.56
2023-03-15T18:47:30.751Z,98337.28
2023-03-15T18:50:35.713Z,98341.06
2023-03-15T18:53:40.284Z,98340.28
2023-03-15T18:56:45.038Z,98341.09
2023-03-15T18:59:50.607Z,98343.13
2023-03-15T19:02:56.699Z,98343.56
2023-03-15T19:06:06.306Z,98338.69
2023-03-15T19:09:10.663Z,98339.22
2023-03-15T19:12:14.895Z,98337.34
2023-03-15T19:15:21.931Z,98343.31
2023-03-15T19:18:26.852Z,98333.53
2023-03-15T19:21:31.097Z,98336.66
2023-03-15T19:24:36.656Z,98330.88
2023-03-15T19:27:40.964Z,98327.81
2023-03-15T19:30:46.619Z,98331.91
2023-03-15T19:33:50.703Z,98345.00
2023-03-15T19:36:54.864Z,98344.56
2023-03-15T19:39:59.182Z,98347.94
2023-03-15T19:43:03.433Z,98350.13
2023-03-15T19:46:09.212Z,98356.78
2023-03-15T19:49:13.506Z,98361.78
2023-03-15T19:52:17.824Z,98365.03
2023-03-15T19:55:22.894Z,98369.81
2023-03-15T19:58:27.203Z,98371.00
2023-03-15T20:01:33.592Z,98378.97
2023-03-15T20:04:38.237Z,98377.47
2023-03-15T20:07:43.391Z,98375.47
2023-03-15T20:10:49.046Z,98382.81
2023-03-15T20:13:53.959Z,98387.78
2023-03-15T20:16:59.780Z,98382.19
2023-03-15T20:20:06.273Z,98387.66
2023-03-15T20:23:10.342Z,98375.53
2023-03-15T20:26:17.173Z,98382.56
2023-03-15T20:29:22.649Z,98377.34
2023-03-15T20:32:28.314Z,98375.59
2023-03-15T20:35:32.404Z,98369.59
2023-03-15T20:38:37.615Z,98362.91
2023-03-15T20:41:41.817Z,98364.91
2023-03-15T20:44:45.980Z,98350.28
2023-03-15T20:47:51.781Z,98355.00
2023-03-15T20:50:57.013Z,98347.06
2023-03-15T20:54:01.229Z,98348.38
2023-03-15T20:57:06.827Z,98351.66
2023-03-15T21:00:18.526Z,98362.03
2023-03-15T21:03:24.801Z,98365.38
2023-03-15T21:06:28.859Z,98376.28
2023-03-15T21:09:33.227Z,98376.75
2023-03-15T21:12:37.825Z,98383.41
2023-03-15T21:15:46.123Z,98394.16
2023-03-15T21:18:55.092Z,98392.88
2023-03-15T21:21:59.444Z,98389.44
2023-03-15T21:25:03.810Z,98384.59
2023-03-15T21:28:07.893Z,98382.72
2023-03-15T21:31:12.261Z,98390.28
2023-03-15T21:34:18.233Z,98391.16
2023-03-15T21:37:22.397Z,98407.47
2023-03-15T21:40:26.871Z,98411.91
2023-03-15T21:43:33.113Z,98414.44
2023-03-15T21:46:37.700Z,98408.03
2023-03-15T21:49:45.205Z,98414.34
2023-03-15T21:52:49.320Z,98417.06
2023-03-15T21:55:58.126Z,98424.72
2023-03-15T21:59:02.252Z,98423.72
2023-03-15T22:02:08.355Z,98408.13
2023-03-15T22:05:15.218Z,98413.91
2023-03-15T22:08:19.475Z,98413.59
2023-03-15T22:11:23.662Z,98404.47
2023-03-15T22:14:28.097Z,98402.72
2023-03-15T22:18:27.007Z,98399.09
2023-03-15T22:21:51.405Z,98392.44
2023-03-15T22:24:55.779Z,98392.56
2023-03-15T22:28:00.010Z,98387.03
2023-03-15T22:31:04.338Z,98399.50
2023-03-15T22:34:09.081Z,98401.63
2023-03-15T22:37:15.049Z,98402.22
2023-03-15T22:40:19.333Z,98404.56
2023-03-15T22:43:23.565Z,98408.75
2023-03-15T22:46:27.981Z,98408.78
2023-03-15T22:49:32.082Z,98417.03
2023-03-15T22:52:37.579Z,98418.88
2023-03-15T22:55:41.677Z,98426.47
2023-03-15T22:58:47.523Z,98432.16
2023-03-15T23:01:51.775Z,98435.47
2023-03-15T23:04:56.424Z,98433.38
2023-03-15T23:08:02.108Z,98436.25
2023-03-15T23:11:06.548Z,98437.88
2023-03-15T23:14:10.599Z,98442.19
2023-03-15T23:17:14.760Z,98446.69
2023-03-15T23:20:20.126Z,98449.34
2023-03-15T23:23:27.348Z,98451.56
2023-03-15T23:26:37.602Z,98454.78
2023-03-15T23:29:53.711Z,98464.31
2023-03-15T23:32:59.106Z,98458.59
2023-03-15T23:36:03.746Z,98456.53
2023-03-15T23:39:09.601Z,98455.09
2023-03-15T23:42:14.291Z,98454.19
2023-03-15T23:45:18.451Z,98449.16
2023-03-15T23:48:22.741Z,98445.63
2023-03-15T23:51:26.953Z,98443.66
2023-03-15T23:54:32.815Z,98451.22
2023-03-15T23:57:36.841Z,98449.34
